Terminal Aerodrome Forecast
Issued by NWS Wilmington, OH

Current Version | Previous Version | Graphics & Text | Print | Product List | Glossary On
Versions: 1 2 3 4 5 6 7 8 9 10 11 12 13 14 15 16 17 18 19
000
FTUS41 KILN 221741
TAFILN
TAF
KILN 221741Z 2218/2318 07009KT P6SM OVC100
     FM222300 05009KT P6SM VCSH SCT025 OVC060
      TEMPO 2223/2303 -SHRA BKN025
     FM230700 03013KT 5SM -SHRA BR SCT012 OVC035
     FM231100 02013KT 3SM -SHRA BR OVC004
     FM231700 01013KT 5SM BR VCSH OVC010=

USA.gov is the U.S. government's official web portal to all federal, state and local government web resources and services.